Time;durP1;ratioP1;P1;durP2;ratioP2;P2;SDS_P1;SDS_P2;PMS_P1;PMS_P2;Temp;Humidity;BMP_temperature;BMP_pressure;BME280_temperature;BME280_humidity;BME280_pressure;Samples;Min_cycle;Max_cycle;Signal;HPM_P1;HPM_P2
2023/12/26 00:01:45;;;;;;;1.33;0.80;;;;;;;10.68;100.00;99520.44;7389626;19;20428;-69
2023/12/26 00:04:13;;;;;;;1.88;0.90;;;;;;;10.70;100.00;99521.06;7394268;19;20444;-68
2023/12/26 00:06:44;;;;;;;1.38;0.70;;;;;;;10.72;100.00;99505.75;7392215;19;20372;-68
2023/12/26 00:09:15;;;;;;;1.13;0.52;;;;;;;10.72;100.00;99498.59;7392191;19;20855;-68
2023/12/26 00:11:46;;;;;;;1.00;0.50;;;;;;;10.76;100.00;99499.03;7393951;19;20357;-68
2023/12/26 00:14:16;;;;;;;1.92;0.52;;;;;;;10.77;100.00;99495.34;7391874;19;20448;-68
2023/12/26 00:16:44;;;;;;;1.20;0.30;;;;;;;10.84;100.00;99487.38;7393579;19;20345;-68
2023/12/26 00:19:11;;;;;;;0.55;0.20;;;;;;;10.85;100.00;99484.50;7394038;19;20436;-68
2023/12/26 00:21:38;;;;;;;0.40;0.20;;;;;;;10.91;100.00;99483.69;7391770;19;20357;-68
2023/12/26 00:24:06;;;;;;;0.65;0.20;;;;;;;10.94;100.00;99472.66;7390615;19;20862;-69
2023/12/26 00:26:37;;;;;;;0.30;0.10;;;;;;;11.00;100.00;99466.53;7387685;19;20401;-69
2023/12/26 00:29:06;;;;;;;0.20;0.10;;;;;;;11.07;100.00;99469.19;7393221;19;20364;-69
2023/12/26 00:31:33;;;;;;;0.50;0.10;;;;;;;11.08;100.00;99481.41;7390142;19;20455;-69
2023/12/26 00:34:00;;;;;;;0.73;0.20;;;;;;;11.10;100.00;99454.69;7389743;19;20359;-69
2023/12/26 00:36:27;;;;;;;0.30;0.10;;;;;;;11.14;100.00;99451.41;7394744;19;20377;-68
2023/12/26 00:38:54;;;;;;;0.20;0.00;;;;;;;11.14;100.00;99455.88;7394055;19;20357;-68
2023/12/26 00:41:21;;;;;;;0.38;0.10;;;;;;;11.19;100.00;99442.78;7391778;19;20356;-69
2023/12/26 00:43:48;;;;;;;0.47;0.20;;;;;;;11.23;100.00;99450.13;7391923;19;20372;-69
2023/12/26 00:46:15;;;;;;;0.30;0.10;;;;;;;11.25;100.00;99441.16;7391155;19;20376;-69
2023/12/26 00:48:42;;;;;;;0.40;0.10;;;;;;;11.29;100.00;99442.38;7393447;19;20364;-68
2023/12/26 00:51:09;;;;;;;0.10;0.00;;;;;;;11.25;100.00;99463.19;7391918;19;20404;-68
2023/12/26 00:53:36;;;;;;;0.40;0.00;;;;;;;11.26;100.00;99443.56;7391094;19;20368;-68
2023/12/26 00:56:03;;;;;;;0.00;0.00;;;;;;;11.31;100.00;99462.38;7392066;19;20371;-68
2023/12/26 00:58:30;;;;;;;0.20;0.10;;;;;;;11.37;100.00;99456.22;7391616;19;20486;-68
2023/12/26 01:00:57;;;;;;;0.20;0.08;;;;;;;11.38;100.00;99447.22;7390441;19;20352;-67
2023/12/26 01:03:24;;;;;;;0.20;0.10;;;;;;;11.34;100.00;99446.00;7391744;19;20359;-67
2023/12/26 01:05:52;;;;;;;0.17;0.10;;;;;;;11.34;100.00;99463.78;7389690;19;20360;-68
2023/12/26 01:08:19;;;;;;;0.40;0.10;;;;;;;11.41;100.00;99454.78;7392886;19;20369;-67
2023/12/26 01:10:46;;;;;;;0.32;0.00;;;;;;;11.38;100.00;99444.56;7392961;19;20360;-67
2023/12/26 01:13:13;;;;;;;0.10;0.00;;;;;;;11.40;100.00;99453.13;7392379;19;20333;-67
2023/12/26 01:15:40;;;;;;;0.03;0.00;;;;;;;11.43;100.00;99460.69;7389694;19;20349;-67
2023/12/26 01:18:07;;;;;;;0.10;0.03;;;;;;;11.42;100.00;99468.84;7391250;19;20431;-67
2023/12/26 01:20:34;;;;;;;0.10;0.10;;;;;;;11.41;100.00;99457.44;7392148;19;20373;-67
2023/12/26 01:23:02;;;;;;;0.00;0.00;;;;;;;11.47;100.00;99454.94;7390219;19;20364;-66
2023/12/26 01:25:30;;;;;;;0.10;0.10;;;;;;;11.47;100.00;99445.13;7390083;19;20339;-66
2023/12/26 01:27:56;;;;;;;0.20;0.03;;;;;;;11.47;100.00;99446.97;7390305;19;20349;-67
2023/12/26 01:30:23;;;;;;;0.20;0.03;;;;;;;11.46;100.00;99458.63;7391135;19;20360;-66
2023/12/26 01:32:50;;;;;;;0.10;0.10;;;;;;;11.46;100.00;99454.13;7391713;19;20880;-66
2023/12/26 01:35:18;;;;;;;0.50;0.15;;;;;;;11.45;100.00;99441.88;7390089;19;20362;-66
2023/12/26 01:37:45;;;;;;;0.25;0.10;;;;;;;11.47;100.00;99505.41;7391159;19;20380;-65
2023/12/26 01:40:12;;;;;;;2.53;0.43;;;;;;;11.39;100.00;99515.25;7390263;19;20372;-69
2023/12/26 01:42:41;;;;;;;0.82;0.10;;;;;;;11.10;100.00;99505.09;7391883;19;20352;-70
2023/12/26 01:45:08;;;;;;;0.17;0.08;;;;;;;10.89;100.00;99511.47;7388867;19;20348;-68
2023/12/26 01:47:37;;;;;;;1.10;0.15;;;;;;;10.61;100.00;99531.88;7389957;19;20357;-69
2023/12/26 01:50:05;;;;;;;0.73;0.10;;;;;;;10.37;100.00;99511.25;7389180;19;20396;-70
2023/12/26 01:52:33;;;;;;;0.50;0.30;;;;;;;10.22;100.00;99511.41;7392897;19;20348;-70
2023/12/26 01:55:00;;;;;;;0.32;0.10;;;;;;;10.16;100.00;99499.78;7391371;19;20356;-69
2023/12/26 01:57:28;;;;;;;0.97;0.10;;;;;;;10.09;100.00;99506.09;7389304;19;20394;-68
2023/12/26 01:59:56;;;;;;;0.45;0.10;;;;;;;10.05;100.00;99499.56;7388059;19;20363;-69
2023/12/26 02:02:25;;;;;;;0.82;0.10;;;;;;;10.01;100.00;99512.41;7387866;19;20371;-69
2023/12/26 02:04:52;;;;;;;0.20;0.00;;;;;;;10.01;100.00;99509.75;7388770;19;20390;-69
2023/12/26 02:07:19;;;;;;;2.00;0.20;;;;;;;9.99;100.00;99509.13;7388194;19;20369;-69
2023/12/26 02:09:45;;;;;;;1.05;0.10;;;;;;;9.94;100.00;99499.13;7390229;19;20360;-69
2023/12/26 02:12:12;;;;;;;0.77;0.13;;;;;;;9.99;100.00;99522.38;7390045;19;20664;-70
2023/12/26 02:14:40;;;;;;;1.07;0.13;;;;;;;9.92;100.00;99498.50;7387379;19;20442;-70
2023/12/26 02:17:11;;;;;;;1.58;0.15;;;;;;;9.95;100.00;99505.25;7389503;19;20368;-70
2023/12/26 02:19:42;;;;;;;0.77;0.10;;;;;;;9.92;100.00;99484.44;7388540;19;20465;-70
2023/12/26 02:22:09;;;;;;;0.93;0.10;;;;;;;9.88;100.00;99515.00;7389606;19;20871;-69
2023/12/26 02:24:36;;;;;;;1.20;0.10;;;;;;;9.87;100.00;99502.78;7389997;19;20369;-70
2023/12/26 02:27:04;;;;;;;0.60;0.10;;;;;;;9.81;100.00;99501.72;7387124;19;20372;-69
2023/12/26 02:29:31;;;;;;;0.63;0.10;;;;;;;9.78;100.00;99495.00;7389587;19;20393;-69
2023/12/26 02:32:01;;;;;;;1.00;0.17;;;;;;;9.80;100.00;99503.56;7387390;19;20369;-69
2023/12/26 02:34:29;;;;;;;0.40;0.10;;;;;;;9.76;100.00;99504.19;7389476;19;20364;-69
2023/12/26 02:36:56;;;;;;;1.00;0.20;;;;;;;9.76;100.00;99504.97;7388049;19;20380;-70
2023/12/26 02:39:24;;;;;;;1.73;0.45;;;;;;;9.75;100.00;99502.53;7388413;19;20404;-69
2023/12/26 02:41:51;;;;;;;0.75;0.20;;;;;;;9.74;100.00;99512.31;7397263;19;20408;-69
2023/12/26 02:44:17;;;;;;;0.60;0.10;;;;;;;9.75;100.00;99500.72;7397409;19;20857;-68
2023/12/26 02:46:44;;;;;;;0.52;0.10;;;;;;;9.74;100.00;99504.38;7394835;19;20385;-69
2023/12/26 02:49:11;;;;;;;0.57;0.10;;;;;;;9.72;100.00;99509.03;7397509;19;20342;-70
2023/12/26 02:51:38;;;;;;;1.25;0.10;;;;;;;9.72;100.00;99490.50;7393427;19;20352;-69
2023/12/26 02:54:05;;;;;;;0.70;0.30;;;;;;;9.73;100.00;99501.91;7395557;19;21077;-69
2023/12/26 02:56:32;;;;;;;0.47;0.10;;;;;;;9.76;100.00;99507.63;7395615;19;20364;-70
2023/12/26 02:58:59;;;;;;;0.55;0.20;;;;;;;9.72;100.00;99495.81;7397338;19;20337;-69
2023/12/26 03:01:26;;;;;;;0.50;0.10;;;;;;;9.74;100.00;99495.59;7394866;19;20395;-69
2023/12/26 03:03:53;;;;;;;0.17;0.03;;;;;;;9.76;100.00;99490.94;7394909;19;20351;-70
2023/12/26 03:06:21;;;;;;;0.43;0.10;;;;;;;9.77;100.00;99503.94;7392338;19;20380;-70
2023/12/26 03:08:48;;;;;;;1.58;0.20;;;;;;;9.80;100.00;99492.97;7397327;19;20842;-70
2023/12/26 03:11:16;;;;;;;0.32;0.10;;;;;;;9.83;100.00;99498.91;7398056;19;20932;-70
2023/12/26 03:13:43;;;;;;;0.63;0.13;;;;;;;9.85;100.00;99495.03;7392282;19;20887;-71
2023/12/26 03:16:10;;;;;;;0.70;0.38;;;;;;;9.90;100.00;99487.31;7393919;19;20360;-70
2023/12/26 03:18:38;;;;;;;1.10;0.30;;;;;;;9.99;100.00;99486.09;7394929;19;20388;-70
2023/12/26 03:21:05;;;;;;;1.27;0.40;;;;;;;10.03;100.00;99486.53;7394935;19;20364;-70
2023/12/26 03:23:32;;;;;;;0.90;0.30;;;;;;;10.12;100.00;99484.50;7384193;19;20459;-72
2023/12/26 03:25:59;;;;;;;0.75;0.40;;;;;;;10.21;100.00;99484.09;7390718;19;20353;-70
2023/12/26 03:28:25;;;;;;;0.32;0.22;;;;;;;10.29;100.00;99490.22;7390744;19;20346;-70
2023/12/26 03:30:52;;;;;;;0.28;0.20;;;;;;;10.34;100.00;99503.72;7390313;19;20364;-68
2023/12/26 03:33:19;;;;;;;0.40;0.17;;;;;;;10.38;100.00;99489.03;7394985;19;20375;-68
2023/12/26 03:35:46;;;;;;;0.30;0.20;;;;;;;10.44;100.00;99482.91;7392808;19;20340;-70
2023/12/26 03:38:15;;;;;;;0.15;0.10;;;;;;;10.46;100.00;99491.50;7394155;19;20385;-68
2023/12/26 03:40:42;;;;;;;0.30;0.17;;;;;;;10.47;100.00;99490.44;7394324;19;20781;-69
2023/12/26 03:43:09;;;;;;;0.43;0.20;;;;;;;10.49;100.00;99488.41;7393002;19;20360;-69
2023/12/26 03:45:37;;;;;;;0.30;0.15;;;;;;;10.50;100.00;99479.47;7392927;19;20349;-69
2023/12/26 03:48:05;;;;;;;0.38;0.28;;;;;;;10.51;100.00;99488.22;7390085;19;20364;-69
2023/12/26 03:50:33;;;;;;;0.50;0.30;;;;;;;10.54;100.00;99483.34;7393707;19;20876;-69
2023/12/26 03:53:00;;;;;;;0.30;0.20;;;;;;;10.56;100.00;99493.72;7391484;19;20414;-70
2023/12/26 03:55:27;;;;;;;0.32;0.30;;;;;;;10.57;100.00;99498.81;7396943;19;20332;-70
2023/12/26 03:57:54;;;;;;;0.40;0.20;;;;;;;10.55;100.00;99506.16;7392288;19;20355;-70
2023/12/26 04:00:21;;;;;;;0.30;0.20;;;;;;;10.56;100.00;99507.81;7391570;19;20364;-69
2023/12/26 04:02:48;;;;;;;0.30;0.10;;;;;;;10.57;100.00;99493.53;7393268;19;20353;-70
2023/12/26 04:05:15;;;;;;;0.67;0.20;;;;;;;10.55;100.00;99527.38;7393709;19;20459;-69
2023/12/26 04:07:42;;;;;;;1.10;0.20;;;;;;;10.54;100.00;99501.91;7393232;19;20357;-69
2023/12/26 04:10:09;;;;;;;0.90;0.20;;;;;;;10.55;100.00;99524.72;7392186;19;20358;-71
2023/12/26 04:12:36;;;;;;;0.30;0.17;;;;;;;10.51;100.00;99562.47;7394058;19;20762;-71
2023/12/26 04:15:04;;;;;;;0.10;0.10;;;;;;;10.42;100.00;99564.50;7391306;19;20352;-70
2023/12/26 04:17:31;;;;;;;0.90;0.30;;;;;;;10.23;100.00;99583.78;7392835;19;20410;-69
2023/12/26 04:19:58;;;;;;;1.13;0.10;;;;;;;10.08;100.00;99566.22;7392206;19;20353;-70
2023/12/26 04:22:26;;;;;;;0.90;0.20;;;;;;;9.92;100.00;99595.69;7393032;19;20377;-70
2023/12/26 04:24:52;;;;;;;0.57;0.20;;;;;;;9.71;100.00;99616.00;7393956;19;20349;-71
2023/12/26 04:27:20;;;;;;;0.65;0.20;;;;;;;9.53;100.00;99613.84;7391850;19;20360;-69
2023/12/26 04:29:47;;;;;;;1.17;0.30;;;;;;;9.45;100.00;99592.00;7391202;19;20446;-70
2023/12/26 04:32:14;;;;;;;1.25;0.20;;;;;;;9.37;100.00;99596.44;7392420;19;20381;-70
2023/12/26 04:34:41;;;;;;;1.27;0.20;;;;;;;9.32;100.00;99600.69;7392150;19;20385;-70
2023/12/26 04:37:08;;;;;;;0.90;0.20;;;;;;;9.31;100.00;99599.88;7391372;19;20392;-69
2023/12/26 04:39:35;;;;;;;2.05;0.60;;;;;;;9.24;100.00;99612.22;7392897;19;20348;-70
2023/12/26 04:42:02;;;;;;;1.25;0.30;;;;;;;9.26;100.00;99612.84;7391407;19;20369;-70
2023/12/26 04:44:29;;;;;;;1.42;0.40;;;;;;;9.20;100.00;99608.31;7390498;19;20436;-70
2023/12/26 04:46:56;;;;;;;2.38;0.50;;;;;;;9.22;100.00;99616.88;7393011;19;20436;-70
2023/12/26 04:49:23;;;;;;;3.03;0.40;;;;;;;9.20;100.00;99618.91;7392209;19;20369;-70
2023/12/26 04:51:50;;;;;;;3.45;0.60;;;;;;;9.15;100.00;99610.75;7390009;19;20368;-70
2023/12/26 04:54:18;;;;;;;1.15;0.30;;;;;;;9.15;100.00;99613.38;7392644;19;20751;-70
2023/12/26 04:56:44;;;;;;;1.80;0.43;;;;;;;9.15;100.00;99626.63;7393367;19;20766;-70
2023/12/26 04:59:12;;;;;;;1.60;0.40;;;;;;;9.13;100.00;99631.28;7391420;19;20376;-70
2023/12/26 05:01:42;;;;;;;4.78;1.08;;;;;;;9.12;100.00;99632.31;7383388;19;20744;-70
2023/12/26 05:04:12;;;;;;;2.28;0.50;;;;;;;9.12;100.00;99632.31;7391609;19;20955;-71
2023/12/26 05:06:39;;;;;;;2.45;0.50;;;;;;;9.10;100.00;99629.03;7393986;19;20521;-71
2023/12/26 05:09:06;;;;;;;1.92;0.60;;;;;;;9.08;100.00;99641.63;7393268;19;20382;-71
2023/12/26 05:11:33;;;;;;;2.25;0.70;;;;;;;9.08;100.00;99636.34;7391716;19;20368;-71
2023/12/26 05:14:00;;;;;;;3.70;0.60;;;;;;;9.04;100.00;99649.13;7391029;19;20361;-71
2023/12/26 05:16:28;;;;;;;3.40;1.02;;;;;;;9.05;100.00;99657.88;7390328;19;20958;-69
2023/12/26 05:18:55;;;;;;;2.65;0.80;;;;;;;9.04;100.00;99658.88;7394065;19;20393;-69
2023/12/26 05:21:23;;;;;;;3.08;0.88;;;;;;;9.08;100.00;99654.84;7390846;19;20397;-68
2023/12/26 05:23:50;;;;;;;4.70;1.10;;;;;;;9.08;100.00;99657.50;7390648;19;20796;-69
2023/12/26 05:26:17;;;;;;;2.60;0.82;;;;;;;9.06;100.00;99668.25;7390477;19;20424;-68
2023/12/26 05:28:45;;;;;;;3.35;0.80;;;;;;;9.05;100.00;99679.84;7387905;19;20924;-68
2023/12/26 05:31:12;;;;;;;4.40;0.98;;;;;;;9.11;100.00;99672.97;7389484;19;20365;-68
2023/12/26 05:33:39;;;;;;;3.95;0.90;;;;;;;9.12;100.00;99677.28;7389954;19;20448;-68
2023/12/26 05:36:07;;;;;;;4.20;0.98;;;;;;;9.13;100.00;99676.25;7389756;19;20340;-68
2023/12/26 05:38:35;;;;;;;3.63;0.93;;;;;;;9.12;100.00;99686.03;7389017;19;20895;-68
2023/12/26 05:41:06;;;;;;;8.97;1.30;;;;;;;9.16;100.00;99703.16;7386902;19;20353;-68
2023/12/26 05:43:32;;;;;;;5.55;1.08;;;;;;;9.15;100.00;99703.34;7388045;19;20406;-68
2023/12/26 05:46:01;;;;;;;4.27;1.10;;;;;;;9.15;100.00;99690.13;7388622;19;20708;-68
2023/12/26 05:48:28;;;;;;;4.75;1.00;;;;;;;9.12;100.00;99701.09;7388180;19;20369;-68
2023/12/26 05:50:55;;;;;;;5.03;1.00;;;;;;;9.12;100.00;99683.38;7388908;19;20337;-68
2023/12/26 05:53:23;;;;;;;4.70;1.13;;;;;;;9.10;100.00;99703.09;7388391;19;20369;-68
2023/12/26 05:55:50;;;;;;;4.63;1.40;;;;;;;9.08;100.00;99710.41;7392029;19;20385;-68
2023/12/26 05:58:17;;;;;;;6.43;1.48;;;;;;;9.08;100.00;99705.94;7391271;19;20365;-68
2023/12/26 06:00:44;;;;;;;6.00;1.05;;;;;;;9.03;100.00;99707.50;7388988;19;20403;-67
2023/12/26 06:03:11;;;;;;;4.60;1.20;;;;;;;9.03;100.00;99715.44;7389870;19;20863;-67
2023/12/26 06:05:38;;;;;;;5.47;1.40;;;;;;;9.05;100.00;99714.22;7392826;19;20364;-67
2023/12/26 06:08:05;;;;;;;3.65;1.10;;;;;;;9.05;100.00;99729.28;7388342;19;20440;-67
2023/12/26 06:10:33;;;;;;;7.57;1.40;;;;;;;9.05;100.00;99724.00;7389538;19;20372;-69
2023/12/26 06:13:00;;;;;;;5.25;1.55;;;;;;;9.06;100.00;99733.59;7382824;19;20376;-67
2023/12/26 06:15:27;;;;;;;4.10;1.15;;;;;;;9.10;100.00;99743.59;7399391;19;20373;-67
2023/12/26 06:17:54;;;;;;;5.20;1.20;;;;;;;9.11;100.00;99749.72;7404304;19;20360;-66
2023/12/26 06:20:24;;;;;;;5.30;1.10;;;;;;;9.14;100.00;99754.63;7402472;19;20400;-67
2023/12/26 06:22:51;;;;;;;4.57;1.00;;;;;;;9.15;100.00;99786.19;7404410;19;20402;-67
2023/12/26 06:25:19;;;;;;;6.72;2.00;;;;;;;9.15;100.00;99769.50;7404867;19;20344;-67
2023/12/26 06:27:47;;;;;;;5.63;1.30;;;;;;;9.13;100.00;99776.78;7402420;19;20369;-67
2023/12/26 06:30:14;;;;;;;3.53;0.85;;;;;;;9.12;100.00;99781.28;7389322;19;20395;-67
2023/12/26 06:32:41;;;;;;;5.05;1.10;;;;;;;9.16;100.00;99785.19;7402484;19;20392;-67
2023/12/26 06:35:09;;;;;;;5.07;1.10;;;;;;;9.19;100.00;99786.63;7399918;19;20737;-67
2023/12/26 06:37:36;;;;;;;4.20;0.82;;;;;;;9.19;100.00;99781.34;7399610;19;20364;-67
2023/12/26 06:40:04;;;;;;;5.43;1.23;;;;;;;9.19;100.00;99797.22;7398481;19;20985;-69
2023/12/26 06:42:30;;;;;;;4.83;1.10;;;;;;;9.21;100.00;99789.09;7400598;19;20469;-67
2023/12/26 06:44:58;;;;;;;3.90;1.00;;;;;;;9.15;100.00;99803.88;7398422;19;20915;-67
2023/12/26 06:47:24;;;;;;;5.55;1.13;;;;;;;9.10;100.00;99827.47;7401793;19;20374;-67
2023/12/26 06:49:53;;;;;;;3.35;0.73;;;;;;;9.06;100.00;99820.91;7402881;19;20431;-67
2023/12/26 06:52:20;;;;;;;4.97;1.00;;;;;;;9.07;100.00;99825.97;7402650;19;20368;-67
2023/12/26 06:54:48;;;;;;;4.53;1.05;;;;;;;9.10;100.00;99828.25;7403668;19;20384;-67
2023/12/26 06:57:15;;;;;;;4.18;0.80;;;;;;;9.09;100.00;99854.91;7403580;19;20380;-68
2023/12/26 06:59:45;;;;;;;2.42;0.70;;;;;;;9.08;100.00;99848.81;7400754;19;20387;-67
2023/12/26 07:02:12;;;;;;;5.47;1.10;;;;;;;9.07;100.00;99852.44;7401791;19;20397;-67
2023/12/26 07:04:44;;;;;;;3.80;0.93;;;;;;;9.10;100.00;99848.63;7402833;19;20418;-67
2023/12/26 07:07:11;;;;;;;4.15;0.70;;;;;;;9.03;99.86;99856.50;7402811;19;20427;-67
2023/12/26 07:09:38;;;;;;;4.75;0.88;;;;;;;9.05;100.00;99848.34;7404066;19;20361;-67
2023/12/26 07:12:06;;;;;;;3.75;0.98;;;;;;;9.00;100.00;99856.03;7403104;19;20376;-67
2023/12/26 07:14:34;;;;;;;3.00;0.90;;;;;;;8.89;98.45;99866.06;7403616;19;20421;-67
2023/12/26 07:17:01;;;;;;;2.50;0.82;;;;;;;8.85;97.02;99883.31;7403189;19;20376;-66
2023/12/26 07:19:28;;;;;;;4.65;0.80;;;;;;;8.78;97.17;99877.13;7398240;19;20754;-66
2023/12/26 07:21:55;;;;;;;2.60;0.73;;;;;;;8.70;95.71;99903.66;7403507;19;20360;-67
2023/12/26 07:24:22;;;;;;;4.20;0.75;;;;;;;8.66;96.22;99889.16;7403365;19;20364;-67
2023/12/26 07:26:48;;;;;;;4.70;1.00;;;;;;;8.61;95.71;99894.16;7399226;19;20958;-67
2023/12/26 07:29:15;;;;;;;3.40;0.80;;;;;;;8.50;94.30;99922.69;7392809;19;20372;-67
2023/12/26 07:31:42;;;;;;;5.18;0.93;;;;;;;8.51;94.60;99920.88;7394339;19;20361;-67
2023/12/26 07:34:09;;;;;;;8.98;1.42;;;;;;;8.42;95.20;99925.41;7396406;19;20374;-67
2023/12/26 07:36:37;;;;;;;5.47;1.30;;;;;;;8.43;95.74;99940.25;7396817;19;20413;-67
2023/12/26 07:39:05;;;;;;;5.40;1.08;;;;;;;8.38;95.81;99937.31;7395651;19;20776;-66
2023/12/26 07:41:32;;;;;;;9.00;1.40;;;;;;;8.27;94.43;99972.91;7396425;19;20381;-67
2023/12/26 07:43:59;;;;;;;3.15;1.00;;;;;;;8.24;93.50;99960.03;7395007;19;20340;-66
2023/12/26 07:46:26;;;;;;;5.72;1.10;;;;;;;8.19;92.71;99990.66;7390567;19;20384;-67
2023/12/26 07:48:54;;;;;;;5.85;1.52;;;;;;;8.16;93.43;99986.56;7394288;19;20373;-66
2023/12/26 07:51:21;;;;;;;6.53;1.33;;;;;;;8.13;92.01;99992.97;7393609;19;20461;-66
2023/12/26 07:53:48;;;;;;;6.80;1.38;;;;;;;8.13;92.21;99995.63;7392998;19;20364;-66
2023/12/26 07:56:15;;;;;;;7.25;1.65;;;;;;;8.12;92.28;100001.91;7392835;19;20366;-66
2023/12/26 07:58:42;;;;;;;5.47;1.33;;;;;;;8.12;91.90;99999.28;7391345;19;20373;-66
2023/12/26 08:01:08;;;;;;;7.22;1.50;;;;;;;8.09;92.19;100023.38;7390609;19;20445;-66
2023/12/26 08:03:35;;;;;;;6.03;1.38;;;;;;;8.13;90.87;100037.09;7397313;19;20377;-67
2023/12/26 08:06:02;;;;;;;6.78;1.35;;;;;;;8.16;90.97;100024.34;7391372;19;20349;-67
2023/12/26 08:08:30;;;;;;;8.43;1.63;;;;;;;8.23;91.01;100024.47;7384572;19;20361;-67
2023/12/26 08:10:57;;;;;;;6.80;1.63;;;;;;;8.23;90.52;100018.38;7393375;19;20490;-67
2023/12/26 08:13:24;;;;;;;8.25;1.30;;;;;;;8.23;90.97;100021.00;7392774;19;20349;-67
2023/12/26 08:15:51;;;;;;;9.43;1.70;;;;;;;8.23;90.49;100032.41;7390892;19;20373;-66
2023/12/26 08:18:18;;;;;;;9.23;1.52;;;;;;;8.29;91.52;100028.25;7393567;19;20368;-66
2023/12/26 08:20:45;;;;;;;6.68;1.40;;;;;;;8.24;91.09;100043.78;7395255;19;20372;-66
2023/12/26 08:23:12;;;;;;;8.70;1.50;;;;;;;8.22;91.69;100037.84;7394590;19;20875;-66
2023/12/26 08:25:39;;;;;;;7.55;1.30;;;;;;;8.22;91.57;100045.78;7395149;19;20681;-66
2023/12/26 08:28:06;;;;;;;8.50;1.88;;;;;;;8.20;91.66;100042.47;7385239;19;22019;-66
2023/12/26 08:30:33;;;;;;;9.15;1.95;;;;;;;8.21;91.91;100050.25;7392014;19;20372;-66
2023/12/26 08:33:05;;;;;;;9.23;1.80;;;;;;;8.28;92.37;100058.28;7393196;19;20734;-66
2023/12/26 08:35:32;;;;;;;5.13;1.15;;;;;;;8.22;91.78;100069.56;7391812;19;20881;-66
2023/12/26 08:37:59;;;;;;;5.63;1.48;;;;;;;8.29;92.34;100065.22;7389458;19;20393;-66
2023/12/26 08:40:26;;;;;;;7.00;1.30;;;;;;;8.33;92.03;100063.84;7391930;19;20833;-66
2023/12/26 08:42:52;;;;;;;5.72;1.45;;;;;;;8.38;92.48;100069.44;7392846;19;20374;-66
2023/12/26 08:45:20;;;;;;;8.40;2.00;;;;;;;8.39;92.48;100065.78;7392406;19;20425;-65
2023/12/26 08:47:48;;;;;;;8.65;1.65;;;;;;;8.44;92.22;100073.25;7394443;19;20404;-65
2023/12/26 08:50:16;;;;;;;7.45;1.40;;;;;;;8.44;91.97;100081.19;7393781;19;20405;-65
2023/12/26 08:52:42;;;;;;;6.78;1.10;;;;;;;8.45;92.22;100088.91;7394706;19;21182;-65
2023/12/26 08:55:09;;;;;;;6.90;1.20;;;;;;;8.49;92.10;100106.06;7394362;19;20353;-65
2023/12/26 08:57:36;;;;;;;6.90;1.40;;;;;;;8.52;92.47;100091.66;7393803;19;20353;-65
2023/12/26 09:00:04;;;;;;;4.97;1.00;;;;;;;8.54;93.32;100094.97;7392760;19;20356;-65
2023/12/26 09:02:31;;;;;;;6.78;1.35;;;;;;;8.63;92.53;100108.94;7392635;19;20390;-65
2023/12/26 09:04:59;;;;;;;4.97;1.10;;;;;;;8.67;92.08;100115.53;7386788;19;20801;-65
2023/12/26 09:07:26;;;;;;;6.97;1.80;;;;;;;8.68;91.71;100117.19;7393013;19;20883;-65
2023/12/26 09:09:53;;;;;;;4.32;1.00;;;;;;;8.77;91.66;100126.69;7390058;19;20376;-65
2023/12/26 09:12:20;;;;;;;5.65;1.10;;;;;;;8.85;91.60;100115.25;7390328;19;20360;-65
2023/12/26 09:14:47;;;;;;;6.75;1.52;;;;;;;8.88;91.12;100112.22;7390455;19;20383;-65
2023/12/26 09:17:14;;;;;;;4.68;1.20;;;;;;;8.90;90.96;100129.56;7392675;19;20357;-65
2023/12/26 09:19:41;;;;;;;7.37;1.20;;;;;;;8.93;91.10;100137.16;7391367;19;20417;-65
2023/12/26 09:22:08;;;;;;;5.28;1.48;;;;;;;9.02;91.01;100139.72;7391492;19;20375;-64
2023/12/26 09:24:35;;;;;;;6.97;1.58;;;;;;;9.00;89.73;100153.13;7393280;19;20710;-65
2023/12/26 09:27:02;;;;;;;5.13;1.40;;;;;;;9.05;89.80;100134.88;7392030;19;20361;-65
2023/12/26 09:29:29;;;;;;;6.72;1.33;;;;;;;9.13;89.93;100141.94;7390796;19;20377;-64
2023/12/26 09:31:56;;;;;;;7.72;1.35;;;;;;;9.15;89.75;100143.41;7391605;19;20497;-64
2023/12/26 09:34:23;;;;;;;8.38;1.50;;;;;;;9.17;89.49;100154.63;7389857;19;21491;-65
2023/12/26 09:36:50;;;;;;;7.55;1.25;;;;;;;9.20;89.72;100161.38;7392697;19;20368;-65
2023/12/26 09:39:17;;;;;;;4.38;1.00;;;;;;;9.23;88.81;100179.56;7390597;19;20388;-64
2023/12/26 09:41:44;;;;;;;5.33;1.27;;;;;;;9.31;89.08;100162.81;7392125;19;20384;-64
2023/12/26 09:44:11;;;;;;;5.35;1.30;;;;;;;9.35;88.80;100170.19;7388018;19;20372;-65
2023/12/26 09:46:38;;;;;;;3.83;1.00;;;;;;;9.36;87.50;100174.47;7389365;19;20360;-64
2023/12/26 09:49:05;;;;;;;6.72;1.35;;;;;;;9.48;88.30;100172.22;7386616;19;20360;-65
2023/12/26 09:51:45;;;;;;;6.07;1.63;;;;;;;9.45;87.45;100172.56;7390357;19;20351;-64
2023/12/26 09:54:12;;;;;;;4.13;1.02;;;;;;;9.49;87.48;100183.63;7390015;19;20675;-64
2023/12/26 09:56:42;;;;;;;5.18;1.25;;;;;;;9.46;85.49;100191.94;7390598;19;20351;-65
2023/12/26 09:59:09;;;;;;;5.05;1.42;;;;;;;9.53;86.10;100206.09;7389875;19;20356;-66
2023/12/26 10:01:36;;;;;;;7.47;1.80;;;;;;;9.53;84.54;100192.88;7389510;19;20351;-65
2023/12/26 10:04:06;;;;;;;5.63;1.20;;;;;;;9.55;84.60;100186.38;7390615;19;20697;-65
2023/12/26 10:06:33;;;;;;;5.28;1.20;;;;;;;9.62;84.55;100194.41;7385922;19;20364;-65
2023/12/26 10:09:00;;;;;;;5.63;1.15;;;;;;;9.60;83.90;100209.66;7390057;19;20376;-65
2023/12/26 10:11:28;;;;;;;6.65;1.30;;;;;;;9.64;83.39;100210.13;7389999;19;20356;-65
2023/12/26 10:13:57;;;;;;;4.93;1.30;;;;;;;9.71;83.13;100214.53;7387287;19;20352;-64
2023/12/26 10:16:24;;;;;;;5.13;1.40;;;;;;;9.67;82.40;100233.59;7390930;19;20394;-64
2023/12/26 10:18:51;;;;;;;6.57;1.50;;;;;;;9.68;80.71;100230.78;7389399;19;20373;-65
2023/12/26 10:21:18;;;;;;;5.72;1.60;;;;;;;9.69;80.44;100227.13;7389813;19;20396;-65
2023/12/26 10:23:45;;;;;;;4.70;1.27;;;;;;;9.75;79.82;100230.88;7388931;19;20364;-65
2023/12/26 10:26:13;;;;;;;5.07;0.90;;;;;;;9.72;78.35;100232.06;7388444;19;20381;-65
2023/12/26 10:28:42;;;;;;;5.00;1.30;;;;;;;9.86;78.42;100221.66;7384149;19;20395;-65
2023/12/26 10:31:13;;;;;;;5.20;1.17;;;;;;;9.87;78.05;100240.03;7385532;19;20376;-64
2023/12/26 10:33:42;;;;;;;6.78;1.33;;;;;;;9.95;78.71;100220.59;7388692;19;20360;-64
2023/12/26 10:36:10;;;;;;;5.90;1.38;;;;;;;9.95;77.86;100234.66;7390721;19;20415;-64
2023/12/26 10:38:39;;;;;;;5.13;1.40;;;;;;;10.02;77.52;100237.38;7389854;19;20383;-64
2023/12/26 10:41:08;;;;;;;4.75;0.93;;;;;;;10.07;77.53;100229.69;7389671;19;20384;-64
2023/12/26 10:43:43;;;;;;;5.10;1.00;;;;;;;10.02;75.97;100232.09;7386183;19;20356;-65
2023/12/26 10:46:09;;;;;;;5.77;1.27;;;;;;;10.09;76.44;100237.47;7388512;19;20444;-64
2023/12/26 10:48:41;;;;;;;3.90;1.40;;;;;;;10.17;76.22;100232.91;7389717;19;20904;-64
2023/12/26 10:51:09;;;;;;;6.57;1.57;;;;;;;10.28;75.29;100249.34;7387750;19;20355;-64
2023/12/26 10:53:47;;;;;;;6.00;1.30;;;;;;;10.36;76.18;100238.69;7387288;19;20346;-64
2023/12/26 10:56:14;;;;;;;7.22;1.45;;;;;;;10.39;75.73;100251.56;7388090;19;20358;-64
2023/12/26 10:58:41;;;;;;;6.18;1.80;;;;;;;10.31;74.39;100272.91;7382907;19;20372;-64
2023/12/26 13:52:10;;;;;;;4.90;1.27;;;;;;;9.90;69.58;100432.25;7392476;19;21168;-63
2023/12/26 13:54:37;;;;;;;6.93;1.33;;;;;;;9.86;70.29;100409.75;7389314;19;20379;-63
2023/12/26 13:57:41;;;;;;;9.95;1.52;;;;;;;9.80;70.65;100433.31;7390346;19;20899;-63
2023/12/26 14:00:45;;;;;;;9.15;2.42;;;;;;;9.82;70.82;100427.00;7389915;19;20694;-63
2023/12/26 14:03:12;;;;;;;5.60;1.63;;;;;;;9.83;71.02;100420.72;7388582;19;20447;-63
2023/12/26 14:05:39;;;;;;;5.82;1.48;;;;;;;9.89;72.05;100422.66;7391416;19;20670;-63
2023/12/26 14:08:43;;;;;;;8.20;2.17;;;;;;;9.88;71.87;100410.41;7390569;19;20374;-63
2023/12/26 14:11:48;;;;;;;8.50;2.03;;;;;;;9.78;72.25;100415.97;7387841;19;20431;-63
2023/12/26 14:14:15;;;;;;;10.18;2.28;;;;;;;9.82;73.06;100421.69;7388799;19;20349;-63
2023/12/26 14:16:41;;;;;;;6.40;1.47;;;;;;;9.80;72.82;100428.03;7386721;19;20408;-63
2023/12/26 14:19:46;;;;;;;8.38;1.83;;;;;;;9.76;73.01;100445.25;7382526;19;20699;-63
2023/12/26 14:22:50;;;;;;;9.07;1.63;;;;;;;9.71;73.58;100439.69;7390539;19;20430;-63
2023/12/26 14:25:16;;;;;;;7.68;1.58;;;;;;;9.59;72.80;100459.63;7389355;19;20975;-62
2023/12/26 14:27:43;;;;;;;6.20;1.70;;;;;;;9.48;73.72;100497.03;7389345;19;20868;-63